Terminal Aerodrome Forecast
Issued by NWS Wilmington, OH

Home | Current Version | Previous Version | Text Only | Print | Product List | Glossary On
Versions: 1 2 3 4 5 6 7 8 9 10 11 12 13 14 15 16 17 18 19 20 21 22 23 24 25 26
000
FTUS41 KILN 221848 AAA
TAFDAY
TAF AMD
KDAY 221848Z 2219/2318 24010KT P6SM VCTS BKN035CB
      TEMPO 2219/2221 25008G20KT 4SM TSRA BR OVC025CB
     FM222100 28008KT P6SM VCSH BKN060
     FM230100 34004KT P6SM BKN100
     FM230900 01003KT 4SM BR BKN008
     FM231300 03006KT P6SM SCT250=

USA.gov is the U.S. government's official web portal to all federal, state and local government web resources and services.